createdAt,value
2023-04-16T00:00:43.074Z,61.25
2023-04-16T00:03:11.217Z,61.19
2023-04-16T00:05:38.812Z,61.14
2023-04-16T00:08:06.288Z,61.01
2023-04-16T00:10:37.067Z,61.33
2023-04-16T00:13:04.497Z,61.00
2023-04-16T00:15:31.958Z,60.88
2023-04-16T00:17:59.721Z,60.96
2023-04-16T00:20:27.164Z,61.17
2023-04-16T00:22:54.537Z,60.96
2023-04-16T00:25:22.434Z,60.96
2023-04-16T00:27:50.038Z,61.07
2023-04-16T00:30:17.471Z,60.86
2023-04-16T00:32:45.333Z,60.90
2023-04-16T00:35:12.818Z,61.01
2023-04-16T00:37:40.326Z,61.02
2023-04-16T00:40:08.493Z,61.42
2023-04-16T00:42:37.043Z,61.85
2023-04-16T00:45:05.766Z,61.52
2023-04-16T00:47:33.730Z,61.49
2023-04-16T00:50:03.231Z,61.25
2023-04-16T00:52:32.329Z,61.16
2023-04-16T00:55:00.223Z,61.04
2023-04-16T00:57:28.020Z,60.88
2023-04-16T00:59:55.842Z,60.39
2023-04-16T01:02:23.878Z,60.56
2023-04-16T01:04:51.685Z,61.17
2023-04-16T01:07:19.134Z,61.13
2023-04-16T01:09:46.952Z,60.64
2023-04-16T01:12:14.513Z,60.90
2023-04-16T01:14:41.943Z,61.12
2023-04-16T01:17:09.635Z,61.44
2023-04-16T01:19:37.187Z,61.23
2023-04-16T01:22:04.868Z,61.77
2023-04-16T01:24:32.804Z,61.82
2023-04-16T01:27:00.632Z,61.49
2023-04-16T01:29:28.096Z,61.63
2023-04-16T01:31:56.210Z,61.78
2023-04-16T01:34:23.727Z,61.79
2023-04-16T01:36:51.937Z,61.98
2023-04-16T01:39:19.795Z,61.94
2023-04-16T01:41:47.467Z,61.81
2023-04-16T01:44:14.865Z,62.12
2023-04-16T01:49:11.728Z,61.92
2023-04-16T01:51:39.370Z,61.87
2023-04-16T01:54:07.262Z,61.92
2023-04-16T01:56:34.716Z,62.68
2023-04-16T01:59:02.247Z,61.83
2023-04-16T02:01:31.874Z,62.06
2023-04-16T02:03:59.878Z,61.64
2023-04-16T02:06:27.618Z,61.34
2023-04-16T02:08:55.025Z,61.37
2023-04-16T02:11:22.691Z,61.46
2023-04-16T02:13:50.519Z,61.97
2023-04-16T02:16:18.481Z,61.77
2023-04-16T02:18:47.198Z,61.84
2023-04-16T02:21:15.344Z,61.99
2023-04-16T02:23:45.972Z,61.82
2023-04-16T02:26:13.760Z,61.98
2023-04-16T02:28:41.805Z,61.59
2023-04-16T02:31:09.670Z,62.08
2023-04-16T02:33:38.871Z,61.75
2023-04-16T02:36:07.144Z,61.59
2023-04-16T02:38:34.627Z,61.51
2023-04-16T02:41:02.082Z,61.71
2023-04-16T02:43:29.845Z,61.15
2023-04-16T02:45:59.219Z,61.42
2023-04-16T02:48:26.922Z,61.50
2023-04-16T02:50:54.953Z,61.20
2023-04-16T02:53:22.460Z,61.20
2023-04-16T02:55:55.638Z,61.99
2023-04-16T02:58:25.012Z,61.95
2023-04-16T03:00:53.454Z,62.04
2023-04-16T03:03:21.816Z,62.13
2023-04-16T03:05:49.913Z,61.88
2023-04-16T03:08:17.360Z,62.24
2023-04-16T03:10:44.818Z,62.23
2023-04-16T03:13:12.511Z,62.15
2023-04-16T03:15:40.143Z,62.28
2023-04-16T03:18:07.518Z,61.46
2023-04-16T03:20:35.310Z,61.44
2023-04-16T03:23:02.690Z,61.54
2023-04-16T03:25:30.058Z,61.73
2023-04-16T03:27:57.748Z,61.65
2023-04-16T03:30:25.345Z,61.25
2023-04-16T03:32:52.928Z,61.31
2023-04-16T03:35:21.294Z,61.69
2023-04-16T03:37:50.246Z,62.08
2023-04-16T03:40:18.260Z,62.52
2023-04-16T03:42:46.145Z,62.24
2023-04-16T03:45:13.655Z,62.59
2023-04-16T03:47:42.215Z,62.44
2023-04-16T03:50:11.607Z,62.34
2023-04-16T03:52:39.778Z,61.54
2023-04-16T03:55:07.850Z,62.22
2023-04-16T03:57:35.602Z,61.69
2023-04-16T04:00:04.213Z,61.66
2023-04-16T04:02:41.676Z,61.97
2023-04-16T04:05:10.649Z,62.11
2023-04-16T04:07:38.309Z,62.32
2023-04-16T04:10:06.935Z,61.60
2023-04-16T04:12:35.809Z,61.49
2023-04-16T04:15:03.356Z,61.50
2023-04-16T04:17:30.860Z,61.65
2023-04-16T04:20:01.194Z,61.97
2023-04-16T04:22:30.864Z,62.15
2023-04-16T04:24:58.717Z,62.46
2023-04-16T04:27:27.272Z,62.46
2023-04-16T04:29:54.750Z,62.76
2023-04-16T04:32:22.880Z,63.31
2023-04-16T04:34:50.701Z,63.43
2023-04-16T04:37:18.146Z,63.33
2023-04-16T04:39:46.147Z,63.46
2023-04-16T04:42:13.660Z,62.88
2023-04-16T04:44:41.284Z,62.91
2023-04-16T04:47:09.093Z,62.54
2023-04-16T04:49:36.519Z,62.40
2023-04-16T04:52:04.032Z,62.23
2023-04-16T04:54:32.805Z,62.42
2023-04-16T04:57:00.354Z,63.09
2023-04-16T04:59:28.489Z,63.07
2023-04-16T05:01:56.430Z,62.83
2023-04-16T05:04:23.890Z,62.97
2023-04-16T05:06:51.417Z,62.82
2023-04-16T05:09:19.068Z,63.01
2023-04-16T05:11:46.577Z,62.83
2023-04-16T05:14:13.995Z,63.37
2023-04-16T05:16:41.863Z,63.25
2023-04-16T05:19:09.528Z,62.38
2023-04-16T05:21:37.101Z,61.96
2023-04-16T05:24:05.108Z,62.46
2023-04-16T05:26:32.508Z,62.66
2023-04-16T05:28:59.921Z,62.50
2023-04-16T05:31:27.626Z,62.52
2023-04-16T05:33:54.998Z,62.79
2023-04-16T05:36:22.591Z,62.86
2023-04-16T05:38:50.298Z,62.69
2023-04-16T05:41:17.784Z,63.25
2023-04-16T05:43:45.237Z,63.76
2023-04-16T05:46:12.944Z,63.80
2023-04-16T05:48:40.354Z,64.13
2023-04-16T05:51:07.753Z,63.71
2023-04-16T05:53:35.573Z,63.54
2023-04-16T05:56:03.232Z,63.80
2023-04-16T05:58:30.659Z,63.92
2023-04-16T06:00:58.300Z,63.45
2023-04-16T06:03:26.119Z,63.40
2023-04-16T06:05:53.665Z,62.91
2023-04-16T06:08:21.100Z,62.83
2023-04-16T06:10:49.145Z,63.37
2023-04-16T06:13:17.071Z,63.45
2023-04-16T06:15:44.518Z,64.08
2023-04-16T06:18:12.262Z,63.61
2023-04-16T06:20:39.685Z,63.40
2023-04-16T06:23:07.104Z,63.60
2023-04-16T06:25:34.775Z,63.55
2023-04-16T06:28:02.446Z,63.89
2023-04-16T06:30:30.121Z,63.65
2023-04-16T06:32:57.915Z,63.89
2023-04-16T06:35:25.477Z,63.92
2023-04-16T06:37:52.906Z,63.69
2023-04-16T06:40:20.593Z,63.58
2023-04-16T06:42:47.961Z,63.55
2023-04-16T06:45:15.520Z,62.76
2023-04-16T06:47:43.302Z,61.34
2023-04-16T06:50:11.146Z,60.12
2023-04-16T06:52:38.568Z,60.47
2023-04-16T06:55:08.275Z,59.83
2023-04-16T06:57:37.516Z,61.01
2023-04-16T07:00:06.084Z,59.08
2023-04-16T07:02:33.899Z,57.82
2023-04-16T07:05:01.375Z,56.60
2023-04-16T07:07:28.843Z,55.37
2023-04-16T07:09:56.550Z,54.95
2023-04-16T07:12:24.137Z,54.56
2023-04-16T07:14:51.601Z,54.22
2023-04-16T07:17:19.282Z,53.32
2023-04-16T07:19:46.668Z,53.43
2023-04-16T07:22:14.086Z,54.15
2023-04-16T07:24:41.736Z,54.05
2023-04-16T07:27:09.141Z,54.37
2023-04-16T07:29:36.505Z,54.33
2023-04-16T07:32:04.287Z,53.10
2023-04-16T07:34:31.701Z,53.02
2023-04-16T07:36:59.068Z,52.29
2023-04-16T07:39:26.759Z,52.37
2023-04-16T07:41:54.241Z,52.11
2023-04-16T07:44:21.642Z,51.05
2023-04-16T07:46:49.336Z,50.48
2023-04-16T07:49:16.733Z,50.48
2023-04-16T07:51:44.216Z,50.22
2023-04-16T07:54:11.934Z,49.32
2023-04-16T07:56:39.543Z,49.47
2023-04-16T07:59:21.147Z,49.71
2023-04-16T08:01:50.312Z,48.92
2023-04-16T08:04:23.137Z,48.03
2023-04-16T08:06:51.581Z,46.32
2023-04-16T08:09:21.110Z,47.47
2023-04-16T08:11:49.864Z,46.15
2023-04-16T08:14:17.548Z,46.79
2023-04-16T08:16:45.538Z,46.66
2023-04-16T08:19:13.336Z,47.00
2023-04-16T08:21:40.933Z,46.68
2023-04-16T08:24:08.595Z,47.11
2023-04-16T08:26:36.005Z,47.52
2023-04-16T08:29:03.625Z,46.51
2023-04-16T08:31:31.832Z,46.88
2023-04-16T08:34:00.411Z,46.04
2023-04-16T08:36:27.963Z,47.06
2023-04-16T08:38:55.658Z,46.96
2023-04-16T08:41:24.240Z,46.85
2023-04-16T08:43:54.433Z,47.81
2023-04-16T08:46:22.973Z,48.05
2023-04-16T08:48:51.873Z,47.19
2023-04-16T08:51:20.021Z,47.57
2023-04-16T08:53:54.149Z,45.88
2023-04-16T08:56:23.614Z,44.99
2023-04-16T08:58:51.895Z,45.39
2023-04-16T09:01:19.905Z,46.23
2023-04-16T09:03:48.774Z,44.39
2023-04-16T09:06:17.500Z,44.78
2023-04-16T09:08:46.293Z,44.84
2023-04-16T09:11:14.427Z,42.67
2023-04-16T09:13:42.068Z,42.92
2023-04-16T09:16:09.980Z,42.06
2023-04-16T09:18:37.590Z,41.94
2023-04-16T09:21:05.643Z,41.57
2023-04-16T09:23:33.326Z,42.18
2023-04-16T09:26:00.886Z,42.57
2023-04-16T09:28:47.762Z,41.78
2023-04-16T09:31:19.439Z,41.85
2023-04-16T09:34:07.374Z,42.78
2023-04-16T09:36:35.868Z,42.53
2023-04-16T09:39:03.929Z,42.34
2023-04-16T09:41:32.887Z,42.78
2023-04-16T09:44:04.134Z,43.04
2023-04-16T09:46:34.965Z,43.01
2023-04-16T09:49:09.781Z,43.45
2023-04-16T09:51:38.863Z,43.36
2023-04-16T09:54:06.827Z,43.42
2023-04-16T09:56:40.326Z,43.69
2023-04-16T09:59:09.445Z,44.25
2023-04-16T10:01:37.799Z,44.82
2023-04-16T10:04:06.962Z,46.00
2023-04-16T10:06:34.426Z,44.70
2023-04-16T10:09:01.958Z,45.01
2023-04-16T10:11:29.873Z,44.49
2023-04-16T10:13:57.213Z,44.66
2023-04-16T10:16:25.022Z,44.33
2023-04-16T10:18:54.132Z,44.47
2023-04-16T10:21:21.664Z,43.70
2023-04-16T10:23:52.540Z,44.21
2023-04-16T10:26:21.273Z,43.62
2023-04-16T10:28:48.722Z,44.33
2023-04-16T10:31:16.401Z,44.26
2023-04-16T10:33:44.463Z,43.28
2023-04-16T10:36:16.451Z,43.53
2023-04-16T10:38:43.975Z,42.84
2023-04-16T10:41:11.398Z,42.69
2023-04-16T10:43:41.342Z,43.18
2023-04-16T10:46:31.253Z,43.04
2023-04-16T10:49:03.229Z,42.50
2023-04-16T10:51:34.819Z,41.46
2023-04-16T10:54:17.115Z,41.04
2023-04-16T10:56:45.891Z,41.45
2023-04-16T10:59:13.636Z,41.82
2023-04-16T11:01:45.044Z,40.72
2023-04-16T11:04:21.835Z,40.57
2023-04-16T11:07:11.637Z,40.88
2023-04-16T11:09:59.296Z,39.43
2023-04-16T11:12:37.544Z,38.78
2023-04-16T11:15:07.868Z,38.49
2023-04-16T11:17:42.919Z,38.26
2023-04-16T11:20:19.332Z,38.77
2023-04-16T11:22:48.928Z,38.39
2023-04-16T11:25:34.453Z,39.06
2023-04-16T11:28:02.333Z,39.30
2023-04-16T11:30:33.853Z,39.08
2023-04-16T11:33:11.632Z,39.19
2023-04-16T11:35:39.937Z,39.11
2023-04-16T11:38:07.715Z,39.01
2023-04-16T11:40:36.048Z,38.75
2023-04-16T11:43:15.322Z,39.02
2023-04-16T11:46:12.791Z,38.71
2023-04-16T11:48:51.793Z,39.22
2023-04-16T11:51:20.599Z,39.76
2023-04-16T11:53:50.050Z,39.19
2023-04-16T11:56:28.675Z,38.08
2023-04-16T11:59:13.434Z,38.41
2023-04-16T12:01:42.111Z,37.64
2023-04-16T12:04:09.968Z,38.19
2023-04-16T12:06:37.795Z,39.03
2023-04-16T12:09:24.989Z,38.98
2023-04-16T12:11:53.430Z,38.67
2023-04-16T12:14:21.489Z,38.25
2023-04-16T12:16:48.948Z,38.26
2023-04-16T12:19:16.736Z,38.40
2023-04-16T12:21:46.337Z,37.90
2023-04-16T12:24:20.881Z,38.13
2023-04-16T12:26:52.593Z,38.79
2023-04-16T12:29:27.498Z,38.97
2023-04-16T12:31:55.321Z,38.93
2023-04-16T12:34:28.993Z,38.87
2023-04-16T12:37:10.600Z,38.57
2023-04-16T12:39:38.020Z,38.53
2023-04-16T12:42:09.839Z,38.33
2023-04-16T12:44:38.095Z,37.80
2023-04-16T12:47:05.653Z,37.68
2023-04-16T12:49:33.175Z,37.64
2023-04-16T12:52:01.935Z,36.69
2023-04-16T12:54:31.127Z,37.43
2023-04-16T12:56:58.536Z,37.35
2023-04-16T12:59:26.218Z,37.13
2023-04-16T13:01:53.711Z,36.99
2023-04-16T13:04:24.197Z,37.03
2023-04-16T13:06:53.358Z,36.94
2023-04-16T13:09:21.016Z,36.93
2023-04-16T13:11:48.433Z,36.75
2023-04-16T13:14:16.073Z,36.58
2023-04-16T13:16:43.460Z,37.53
2023-04-16T13:19:11.107Z,37.01
2023-04-16T13:21:39.125Z,37.10
2023-04-16T13:24:06.872Z,36.29
2023-04-16T13:26:34.230Z,36.49
2023-04-16T13:29:01.968Z,36.58
2023-04-16T13:31:29.514Z,37.19
2023-04-16T13:33:56.955Z,37.25
2023-04-16T13:36:26.983Z,37.24
2023-04-16T13:38:54.929Z,36.77
2023-04-16T13:41:22.396Z,36.06
2023-04-16T13:43:50.051Z,36.29
2023-04-16T13:46:18.885Z,36.05
2023-04-16T13:48:46.878Z,37.08
2023-04-16T13:51:15.535Z,37.39
2023-04-16T13:53:43.011Z,36.21
2023-04-16T13:56:11.116Z,36.37
2023-04-16T13:58:38.914Z,35.86
2023-04-16T14:01:06.414Z,35.08
2023-04-16T14:03:38.501Z,36.05
2023-04-16T14:06:06.093Z,35.44
2023-04-16T14:08:33.785Z,35.97
2023-04-16T14:11:01.441Z,36.72
2023-04-16T14:13:28.972Z,36.96
2023-04-16T14:15:57.162Z,36.43
2023-04-16T14:18:24.604Z,36.21
2023-04-16T14:20:52.234Z,36.50
2023-04-16T14:23:19.956Z,37.06
2023-04-16T14:25:47.513Z,36.88
2023-04-16T14:28:15.809Z,37.19
2023-04-16T14:30:43.650Z,37.10
2023-04-16T14:33:11.453Z,37.12
2023-04-16T14:35:38.870Z,37.58
2023-04-16T14:38:06.594Z,37.89
2023-04-16T14:40:34.535Z,37.93
2023-04-16T14:43:02.100Z,37.02
2023-04-16T14:45:30.893Z,37.30
2023-04-16T14:47:58.368Z,37.21
2023-04-16T14:50:25.795Z,37.65
2023-04-16T14:52:54.541Z,37.40
2023-04-16T14:55:21.941Z,38.09
2023-04-16T14:57:49.325Z,37.47
2023-04-16T15:00:18.709Z,38.21
2023-04-16T15:02:48.121Z,38.09
2023-04-16T15:05:15.897Z,38.00
2023-04-16T15:07:43.667Z,36.85
2023-04-16T15:10:12.831Z,37.33
2023-04-16T15:12:40.374Z,36.17
2023-04-16T15:15:09.002Z,36.36
2023-04-16T15:17:36.692Z,36.82
2023-04-16T15:20:10.645Z,36.53
2023-04-16T15:22:38.539Z,35.76
2023-04-16T15:25:06.694Z,35.24
2023-04-16T15:27:34.366Z,36.22
2023-04-16T15:30:02.226Z,35.91
2023-04-16T15:32:31.154Z,35.92
2023-04-16T15:34:59.875Z,35.76
2023-04-16T15:37:27.565Z,36.67
2023-04-16T15:39:54.987Z,36.25
2023-04-16T15:42:23.619Z,35.69
2023-04-16T15:44:51.407Z,35.18
2023-04-16T15:47:18.886Z,35.54
2023-04-16T15:49:46.256Z,35.13
2023-04-16T15:52:13.947Z,35.23
2023-04-16T15:54:42.978Z,35.19
2023-04-16T15:57:10.535Z,35.26
2023-04-16T15:59:38.278Z,35.36
2023-04-16T16:02:05.934Z,34.69
2023-04-16T16:04:33.854Z,35.18
2023-04-16T16:07:02.805Z,34.61
2023-04-16T16:09:30.509Z,34.80
2023-04-16T16:11:59.714Z,35.10
2023-04-16T16:14:27.187Z,35.12
2023-04-16T16:16:54.637Z,34.72
2023-04-16T16:19:22.303Z,34.90
2023-04-16T16:21:49.652Z,35.40
2023-04-16T16:24:17.301Z,35.22
2023-04-16T16:26:45.011Z,35.79
2023-04-16T16:29:12.970Z,35.32
2023-04-16T16:31:40.597Z,35.57
2023-04-16T16:34:09.890Z,36.77
2023-04-16T16:36:40.272Z,37.69
2023-04-16T16:39:07.927Z,39.08
2023-04-16T16:41:41.779Z,39.94
2023-04-16T16:44:09.653Z,40.09
2023-04-16T16:46:37.268Z,40.19
2023-04-16T16:49:06.022Z,40.71
2023-04-16T16:51:33.934Z,40.89
2023-04-16T16:54:01.455Z,41.20
2023-04-16T16:56:28.848Z,41.87
2023-04-16T16:58:56.737Z,42.32
2023-04-16T17:01:25.594Z,42.41
2023-04-16T17:03:53.113Z,42.52
2023-04-16T17:06:21.424Z,42.72
2023-04-16T17:08:48.929Z,42.49
2023-04-16T17:11:16.728Z,43.11
2023-04-16T17:13:44.623Z,43.06
2023-04-16T17:16:13.187Z,43.15
2023-04-16T17:18:40.857Z,43.48
2023-04-16T17:21:08.527Z,43.42
2023-04-16T17:23:36.179Z,43.48
2023-04-16T17:26:03.603Z,43.92
2023-04-16T17:28:31.279Z,44.24
2023-04-16T17:30:59.458Z,44.34
2023-04-16T17:33:27.185Z,44.08
2023-04-16T17:35:54.913Z,44.68
2023-04-16T17:38:22.353Z,44.89
2023-04-16T17:40:49.834Z,44.72
2023-04-16T17:43:17.526Z,44.94
2023-04-16T17:45:45.057Z,44.28
2023-04-16T17:48:12.806Z,44.46
2023-04-16T17:50:40.533Z,44.52
2023-04-16T17:53:07.917Z,44.36
2023-04-16T17:55:35.725Z,45.01
2023-04-16T17:58:04.252Z,45.33
2023-04-16T18:00:31.729Z,46.15
2023-04-16T18:03:00.084Z,46.91
2023-04-16T18:05:27.747Z,47.66
2023-04-16T18:07:55.637Z,47.67
2023-04-16T18:10:23.339Z,48.00
2023-04-16T18:12:50.699Z,48.84
2023-04-16T18:15:18.155Z,49.52
2023-04-16T18:17:46.183Z,49.65
2023-04-16T18:20:16.802Z,49.70
2023-04-16T18:22:44.226Z,50.68
2023-04-16T18:25:12.158Z,49.98
2023-04-16T18:27:39.659Z,50.08
2023-04-16T18:30:07.557Z,50.38
2023-04-16T18:32:36.476Z,50.22
2023-04-16T18:35:06.317Z,49.81
2023-04-16T18:37:33.702Z,49.85
2023-04-16T18:40:01.699Z,49.58
2023-04-16T18:42:29.415Z,49.74
2023-04-16T18:44:57.017Z,49.48
2023-04-16T18:47:24.996Z,49.77
2023-04-16T18:49:52.506Z,50.04
2023-04-16T18:52:19.979Z,50.43
2023-04-16T18:54:47.659Z,51.25
2023-04-16T18:57:15.080Z,51.27
2023-04-16T18:59:42.462Z,51.29
2023-04-16T19:02:10.231Z,51.33
2023-04-16T19:04:38.239Z,51.92
2023-04-16T19:07:05.782Z,51.97
2023-04-16T19:09:33.485Z,51.86
2023-04-16T19:12:01.754Z,51.88
2023-04-16T19:14:29.176Z,51.59
2023-04-16T19:16:56.905Z,52.50
2023-04-16T19:19:24.363Z,52.38
2023-04-16T19:21:52.042Z,52.83
2023-04-16T19:24:19.921Z,52.53
2023-04-16T19:26:47.404Z,52.31
2023-04-16T19:29:14.808Z,52.70
2023-04-16T19:31:42.489Z,52.17
2023-04-16T19:34:10.190Z,52.18
2023-04-16T19:36:37.554Z,52.29
2023-04-16T19:39:05.274Z,52.44
2023-04-16T19:41:32.995Z,52.68
2023-04-16T19:44:00.592Z,53.85
2023-04-16T19:46:28.343Z,53.26
2023-04-16T19:48:56.808Z,53.35
2023-04-16T19:51:24.546Z,52.86
2023-04-16T19:53:53.261Z,52.58
2023-04-16T19:56:20.702Z,52.35
2023-04-16T19:58:48.140Z,52.30
2023-04-16T20:01:15.903Z,52.28
2023-04-16T20:03:43.670Z,52.80
2023-04-16T20:06:11.351Z,52.57
2023-04-16T20:08:38.843Z,52.32
2023-04-16T20:11:08.498Z,52.68
2023-04-16T20:13:37.613Z,53.07
2023-04-16T20:16:05.679Z,52.96
2023-04-16T20:18:41.463Z,53.63
2023-04-16T20:21:09.828Z,53.55
2023-04-16T20:23:37.518Z,53.44
2023-04-16T20:26:04.970Z,53.31
2023-04-16T20:28:32.559Z,53.97
2023-04-16T20:31:00.286Z,54.23
2023-04-16T20:33:28.026Z,53.91
2023-04-16T20:35:56.217Z,53.64
2023-04-16T20:38:24.034Z,53.27
2023-04-16T20:40:58.135Z,53.21
2023-04-16T20:43:26.145Z,53.25
2023-04-16T20:45:53.580Z,53.21
2023-04-16T20:48:21.032Z,53.45
2023-04-16T20:50:48.760Z,53.22
2023-04-16T20:53:16.319Z,52.84
2023-04-16T20:55:43.754Z,53.06
2023-04-16T20:58:11.606Z,53.38
2023-04-16T21:00:38.954Z,53.36
2023-04-16T21:03:06.768Z,53.20
2023-04-16T21:05:34.520Z,52.76
2023-04-16T21:08:02.027Z,52.57
2023-04-16T21:10:29.406Z,52.77
2023-04-16T21:12:57.068Z,53.03
2023-04-16T21:15:24.555Z,52.91
2023-04-16T21:17:51.988Z,52.83
2023-04-16T21:20:19.907Z,52.65
2023-04-16T21:22:47.351Z,52.90
2023-04-16T21:25:14.809Z,52.45
2023-04-16T21:27:42.502Z,51.95
2023-04-16T21:30:10.320Z,52.21
2023-04-16T21:32:38.079Z,52.00
2023-04-16T21:35:06.351Z,51.77
2023-04-16T21:37:33.948Z,51.11
2023-04-16T21:40:01.343Z,50.57
2023-04-16T21:42:29.137Z,50.91
2023-04-16T21:44:56.563Z,51.85
2023-04-16T21:47:24.034Z,52.20
2023-04-16T21:49:51.781Z,52.52
2023-04-16T21:52:19.209Z,52.49
2023-04-16T21:54:46.779Z,52.38
2023-04-16T21:57:14.764Z,51.78
2023-04-16T21:59:42.253Z,52.24
2023-04-16T22:02:09.782Z,51.95
2023-04-16T22:04:38.761Z,51.81
2023-04-16T22:07:08.837Z,52.40
2023-04-16T22:09:36.591Z,51.87
2023-04-16T22:12:06.918Z,52.25
2023-04-16T22:14:34.709Z,51.96
2023-04-16T22:17:03.487Z,51.80
2023-04-16T22:19:31.820Z,51.99
2023-04-16T22:21:59.215Z,51.99
2023-04-16T22:24:26.699Z,52.17
2023-04-16T22:26:54.419Z,52.68
2023-04-16T22:29:21.844Z,52.47
2023-04-16T22:31:49.439Z,52.60
2023-04-16T22:34:17.081Z,52.56
2023-04-16T22:36:44.538Z,52.42
2023-04-16T22:39:12.185Z,52.40
2023-04-16T22:41:40.499Z,52.00
2023-04-16T22:44:08.123Z,51.84
2023-04-16T22:46:35.904Z,51.14
2023-04-16T22:49:03.655Z,50.99
2023-04-16T22:51:31.104Z,51.06
2023-04-16T22:53:58.548Z,51.56
2023-04-16T22:56:28.898Z,51.30
2023-04-16T22:58:56.717Z,51.43
2023-04-16T23:01:24.450Z,51.71
2023-04-16T23:03:52.445Z,51.71
2023-04-16T23:06:19.902Z,51.15
2023-04-16T23:08:47.337Z,51.30
2023-04-16T23:11:15.528Z,51.65
2023-04-16T23:13:43.004Z,51.63
2023-04-16T23:16:10.880Z,51.93
2023-04-16T23:18:38.662Z,51.83
2023-04-16T23:21:06.117Z,52.45
2023-04-16T23:23:33.530Z,52.91
2023-04-16T23:26:02.707Z,52.64
2023-04-16T23:28:30.106Z,53.00
2023-04-16T23:30:57.530Z,53.29
2023-04-16T23:33:25.252Z,53.47
2023-04-16T23:35:52.638Z,54.35
2023-04-16T23:38:20.317Z,54.72
2023-04-16T23:40:47.986Z,54.90
2023-04-16T23:43:15.410Z,54.73
2023-04-16T23:45:42.920Z,55.03
2023-04-16T23:48:10.666Z,54.89
2023-04-16T23:50:38.123Z,55.06
2023-04-16T23:53:05.601Z,55.26
2023-04-16T23:55:33.262Z,55.18
2023-04-16T23:58:00.902Z,55.47
